Atmospheric History
01/18/2018 15:59  to  1/19/2018 15:59
Change End Date:
To complete the export process:
1) Select all of the data below
2) Copy the data to the clipboard
3) Open a word processor such as Notepad
4) Paste the data into the word processor
5) Save the file

Date/Time (MST), AirTemp, RH, Dewpoint ,AvgWindSpeed, GustWindSpeed, WindDirection, PrecipType, PrecipIntensity, PrecipAccumulation, PrecipRate
01/19/2018 15:53, 35, , 37 ,6, 9, W, None, None, ,  
01/19/2018 15:52, 35, , 37 ,4, 9, W, None, None, ,  
01/19/2018 15:43, 35, , 37 ,6, 7, W, None, None, ,  
01/19/2018 15:37, 35, , 37 ,2, 4, W, None, None, ,  
01/19/2018 15:33, 35, , 38 ,1, 4, NW, None, None, ,  
01/19/2018 15:23, 35, , 37 ,4, 6, W, None, None, ,  
01/19/2018 15:22, 35, , 37 ,4, 6, W, None, None, ,  
01/19/2018 15:13, 35, , 37 ,4, 7, W, None, None, ,  
01/19/2018 15:07, 35, , 37 ,4, 6, W, None, None, ,  
01/19/2018 15:03, 35, , 37 ,4, 7, W, None, None, ,  
01/19/2018 14:53, 35, , 37 ,6, 7, W, None, None, ,  
01/19/2018 14:52, 35, , 37 ,6, 7, W, None, None, ,  
01/19/2018 14:43, 35, , 37 ,5, 9, W, None, None, ,  
01/19/2018 14:37, 35, , 37 ,7, 9, W, None, None, ,  
01/19/2018 14:33, 35, , 36 ,7, 9, W, None, None, ,  
01/19/2018 14:23, 36, 100, 36 ,7, 9, W, None, None, ,  
01/19/2018 14:22, 36, 100, 36 ,7, 9, W, None, None, ,  
01/19/2018 14:13, 36, 100, 36 ,6, 9, SW, None, None, ,  
01/19/2018 14:07, 36, 100, 36 ,6, 9, SW, None, None, ,  
01/19/2018 14:03, 36, 100, 36 ,4, 7, SW, None, None, ,  
01/19/2018 13:53, 36, , 37 ,4, 7, SW, None, None, ,  
01/19/2018 13:52, 36, , 37 ,4, 9, SW, None, None, ,  
01/19/2018 13:42, 35, , 36 ,7, 10, S, None, None, ,  
01/19/2018 13:37, 35, , 37 ,8, 10, S, None, None, ,  
01/19/2018 13:32, 35, , 37 ,7, 9, S, None, None, ,  
01/19/2018 13:22, 35, , 36 ,7, 9, S, None, None, ,  
01/19/2018 13:22, 35, , 36 ,7, 9, S, None, None, ,  
01/19/2018 13:12, 35, , 37 ,4, 7, S, None, None, ,  
01/19/2018 13:07, 35, , 37 ,5, 9, S, None, None, ,  
01/19/2018 13:02, 35, , 37 ,7, 9, SW, None, None, ,  
01/19/2018 12:52, 34, , 37 ,7, 10, S, None, None, ,  
01/19/2018 12:52, 34, , 37 ,7, 10, S, None, None, ,  
01/19/2018 12:42, 34, , 37 ,6, 8, S, None, None, ,  
01/19/2018 12:37, 34, , 37 ,5, 9, S, None, None, ,  
01/19/2018 12:32, 34, , 37 ,6, 10, S, None, None, ,  
01/19/2018 12:22, 34, , 37 ,7, 9, S, None, None, ,  
01/19/2018 12:22, 34, , 37 ,7, 9, S, None, None, ,  
01/19/2018 12:12, 34, , 37 ,7, 10, S, None, None, ,  
01/19/2018 12:07, 34, , 37 ,7, 10, S, Yes, , ,  
01/19/2018 12:02, 34, , 37 ,6, 10, S, Yes, , ,  
01/19/2018 11:52, 34, , 37 ,6, 11, S, Yes, , ,  
01/19/2018 11:52, 34, , 37 ,6, 11, S, Yes, , ,  
01/19/2018 11:42, 33, , 37 ,6, 12, S, Yes, , ,  
01/19/2018 11:37, 33, , 37 ,9, 12, S, None, None, ,  
01/19/2018 11:32, 33, , 37 ,8, 11, S, None, None, ,  
01/19/2018 11:22, 34, , 37 ,5, 8, S, None, None, ,  
01/19/2018 11:22, 34, , 37 ,5, 8, S, None, None, ,  
01/19/2018 11:11, 34, , 37 ,6, 7, S, Yes, , ,  
01/19/2018 11:07, 34, , 37 ,4, 7, SW, Yes, , ,  
01/19/2018 11:01, 34, , 37 ,5, 7, S, Yes, , ,  
01/19/2018 10:52, 33, , 36 ,4, 7, S, Yes, , ,  
01/19/2018 10:51, 33, , 36 ,4, 7, S, Yes, , ,  
01/19/2018 10:41, 33, , 36 ,4, 6, SW, Yes, , ,  
01/19/2018 10:37, 33, , 36 ,4, 6, SW, Yes, , ,  
01/19/2018 10:31, 33, , 36 ,4, 6, SW, Yes, , ,  
01/19/2018 10:22, 33, , 35 ,5, 7, W, Yes, , ,  
01/19/2018 10:21, 33, , 35 ,6, 7, W, Yes, , ,  
01/19/2018 10:11, 33, , 35 ,3, 9, NW, None, None, ,  
01/19/2018 10:07, 33, , 35 ,4, 9, W, Yes, , ,  
01/19/2018 10:01, 33, , 35 ,7, 9, W, None, None, ,  
01/19/2018 09:52, 33, , 35 ,6, 7, W, None, None, ,  
01/19/2018 09:51, 33, , 35 ,5, 7, W, None, None, ,  
01/19/2018 09:41, 33, , 36 ,1, 4, SW, Yes, , ,  
01/19/2018 09:37, 33, , 36 ,1, 6, SW, None, None, ,  
01/19/2018 09:31, 33, , 35 ,4, 7, SW, Yes, , ,  
01/19/2018 09:22, 33, , 35 ,4, 6, SW, Yes, , ,  
01/19/2018 09:21, 33, , 35 ,4, 6, SW, Yes, , ,  
01/19/2018 09:11, 32, , 34 ,4, 6, W, Yes, , ,  
01/19/2018 09:07, 32, , 34 ,1, 4, W, Yes, , ,  
01/19/2018 09:01, 32, , 34 ,1, 5, W, Yes, , ,  
01/19/2018 08:52, 32, , 34 ,3, 7, W, Yes, , ,  
01/19/2018 08:51, 32, , 34 ,3, 7, SW, Yes, , ,  
01/19/2018 08:40, 32, , 34 ,5, 6, W, Yes, , ,  
01/19/2018 08:37, 32, , 34 ,1, 4, W, Yes, , ,  
01/19/2018 08:30, 32, , 34 ,4, 6, SW, Yes, , ,  
01/19/2018 08:22, 32, , 34 ,3, 6, SW, Yes, , ,  
01/19/2018 08:20, 32, , 34 ,4, 6, SW, None, None, ,  
01/19/2018 08:10, 31, , 34 ,4, 7, SW, Yes, , ,  
01/19/2018 08:07, 31, , 34 ,4, 7, SW, None, None, ,  
01/19/2018 08:00, 31, , 34 ,6, 7, W, Yes, , ,  
01/19/2018 07:52, 32, , 35 ,4, 6, SW, None, None, ,  
01/19/2018 07:50, 32, , 35 ,6, 6, SW, Yes, , ,  
01/19/2018 07:40, 32, , 35 ,4, 6, W, Yes, , ,  
01/19/2018 07:37, 32, , 35 ,4, 6, SW, Yes, , ,  
01/19/2018 07:30, 32, , 35 ,2, 3, W, Yes, , ,  
01/19/2018 07:22, 32, , 35 ,2, 4, NW, Yes, , ,  
01/19/2018 07:20, 32, , 35 ,1, 4, NW, Yes, , ,  
01/19/2018 07:10, 32, , 35 ,4, 5, W, Yes, , ,  
01/19/2018 07:07, 32, , 35 ,2, 4, W, Yes, , ,  
01/19/2018 07:00, 32, , 35 ,3, 6, NW, Yes, , ,  
01/19/2018 06:52, 32, , 35 ,4, 6, W, Yes, , ,  
01/19/2018 06:50, 32, , 35 ,4, 6, W, Yes, , ,  
01/19/2018 06:40, 32, , 35 ,3, 6, NW, Yes, , ,  
01/19/2018 06:37, 33, , 35 ,4, 6, NW, Yes, , ,  
01/19/2018 06:30, 33, , 35 ,3, 7, NW, Yes, , ,  
01/19/2018 06:22, 33, , 35 ,4, 7, NW, Yes, , ,  
01/19/2018 06:20, 33, , 35 ,4, 9, NW, Yes, , ,  
01/19/2018 06:09, 33, , 35 ,6, 12, N, Yes, , ,  
01/19/2018 06:07, 33, , 35 ,7, 12, N, Yes, , ,  
01/19/2018 05:59, 33, , 35 ,9, 14, NW, None, None, ,  
01/19/2018 05:52, 33, , 35 ,9, 14, NW, None, None, ,  
01/19/2018 05:49, 33, , 35 ,7, 14, N, None, None, ,  
01/19/2018 05:39, 33, , 34 ,7, 14, NW, None, None, ,  
01/19/2018 05:37, 33, , 34 ,8, 14, N, None, None, ,  
01/19/2018 05:29, 33, , 34 ,8, 11, N, None, None, ,  
01/19/2018 05:22, 33, 100, 34 ,6, 13, NW, None, None, ,  
01/19/2018 05:19, 33, 100, 34 ,7, 13, NW, None, None, ,  
01/19/2018 05:09, 33, 100, 33 ,6, 11, NW, None, None, ,  
01/19/2018 05:07, 33, 100, 33 ,7, 11, NW, None, None, ,  
01/19/2018 04:59, 33, 99, 33 ,6, 11, NW, None, None, ,  
01/19/2018 04:52, 33, 98, 33 ,7, 14, NW, None, None, ,  
01/19/2018 04:49, 33, 98, 33 ,7, 14, NW, None, None, ,  
01/19/2018 04:39, 34, 95, 32 ,8, 17, N, None, None, ,  
01/19/2018 04:37, 34, 94, 32 ,10, 17, NW, None, None, ,  
01/19/2018 04:29, 34, 91, 31 ,11, 21, N, None, None, ,  
01/19/2018 04:22, 34, 89, 31 ,12, 20, NW, None, None, ,  
01/19/2018 04:19, 34, 88, 31 ,12, 20, N, None, None, ,  
01/19/2018 04:09, 34, 85, 30 ,11, 21, NW, None, None, ,  
01/19/2018 04:07, 34, 85, 30 ,11, 22, NW, None, None, ,  
01/19/2018 03:59, 34, 84, 30 ,16, 25, N, None, None, ,  
01/19/2018 03:52, 35, 83, 30 ,17, 25, N, None, None, ,  
01/19/2018 03:49, 35, 82, 30 ,16, 25, N, None, None, ,  
01/19/2018 03:39, 35, 79, 30 ,21, 28, N, None, None, ,  
01/19/2018 03:37, 35, 78, 29 ,20, 24, N, None, None, ,  
01/19/2018 03:28, 36, 76, 29 ,17, 27, N, None, None, ,  
01/19/2018 03:22, 36, 75, 29 ,17, 26, N, None, None, ,  
01/19/2018 03:18, 36, 74, 29 ,18, 26, N, None, None, ,  
01/19/2018 03:08, 37, 71, 28 ,19, 27, N, None, None, ,  
01/19/2018 03:07, 37, 71, 28 ,20, 27, N, None, None, ,  
01/19/2018 02:58, 38, 67, 28 ,20, 26, N, None, None, ,  
01/19/2018 02:52, 39, 63, 27 ,19, 24, N, None, None, ,  
01/19/2018 02:48, 39, 61, 27 ,16, 23, NW, None, None, ,  
01/19/2018 02:38, 40, 57, 26 ,14, 22, N, None, None, ,  
01/19/2018 02:37, 40, 57, 26 ,13, 21, N, None, None, ,  
01/19/2018 02:28, 39, 57, 25 ,11, 16, NW, None, None, ,  
01/19/2018 02:22, 44, 48, 26 ,11, 16, NW, None, None, ,  
01/19/2018 02:18, 44, 48, 26 ,9, 14, NW, None, None, ,  
01/19/2018 02:08, 43, 49, 25 ,8, 9, NW, None, None, ,  
01/19/2018 02:07, 43, 50, 25 ,7, 9, NW, None, None, ,  
01/19/2018 01:58, 42, 50, 25 ,5, 7, NW, None, None, ,  
01/19/2018 01:52, 42, 49, 24 ,6, 9, N, None, None, ,  
01/19/2018 01:48, 42, 48, 24 ,6, 11, N, None, None, ,  
01/19/2018 01:38, 43, 48, 24 ,9, 16, N, None, None, ,  
01/19/2018 01:37, 43, 47, 24 ,10, 17, N, None, None, ,  
01/19/2018 01:28, 42, 48, 24 ,12, 17, N, None, None, ,  
01/19/2018 01:22, 43, 48, 24 ,11, 14, N, None, None, ,  
01/19/2018 01:18, 43, 46, 24 ,11, 14, NW, None, None, ,  
01/19/2018 01:08, 42, 51, 25 ,7, 9, NW, None, None, ,  
01/19/2018 01:07, 42, 51, 25 ,6, 8, NW, None, None, ,  
01/19/2018 00:58, 43, 49, 25 ,4, 5, NW, None, None, ,  
01/19/2018 00:52, 42, 49, 24 ,2, 6, SW, None, None, ,  
01/19/2018 00:48, 42, 49, 24 ,5, 6, S, None, None, ,  
01/19/2018 00:38, 44, 46, 24 ,1, 3, S, None, None, ,  
01/19/2018 00:37, 44, 45, 24 ,1, 2, S, None, None, ,  
01/19/2018 00:27, 43, 45, 24 ,2, 3, N, None, None, ,  
01/19/2018 00:22, 43, 47, 24 ,2, 4, N, None, None, ,  
01/19/2018 00:17, 42, 48, 24 ,3, 4, N, None, None, ,  
01/19/2018 00:07, 43, 46, 24 ,2, 6, N, None, None, ,  
01/19/2018 00:07, 44, 46, 24 ,1, 6, S, None, None, ,  
01/18/2018 23:57, 43, 45, 24 ,2, 6, S, None, None, ,  
01/18/2018 23:52, 45, 43, 24 ,5, 6, S, None, None, ,  
01/18/2018 23:47, 45, 42, 24 ,5, 6, S, None, None, ,  
01/18/2018 23:37, 44, 43, 23 ,3, 7, SE, None, None, ,  
01/18/2018 23:37, 44, 43, 23 ,3, 7, SE, None, None, ,  
01/18/2018 23:27, 45, 42, 24 ,6, 9, S, None, None, ,  
01/18/2018 23:22, 45, 43, 24 ,7, 9, SE, None, None, ,  
01/18/2018 23:17, 46, 41, 24 ,6, 6, SE, None, None, ,  
01/18/2018 23:07, 46, 41, 24 ,4, 7, W, None, None, ,  
01/18/2018 23:07, 46, 41, 24 ,5, 7, W, None, None, ,  
01/18/2018 22:57, 44, 42, 23 ,4, 6, SW, None, None, ,  
01/18/2018 22:52, 44, 43, 23 ,4, 7, S, None, None, ,  
01/18/2018 22:47, 44, 42, 23 ,5, 7, S, None, None, ,  
01/18/2018 22:37, 44, 43, 23 ,5, 6, S, None, None, ,  
01/18/2018 22:27, 45, 41, 23 ,6, 6, S, None, None, ,  
01/18/2018 22:22, 46, 39, 23 ,4, 6, S, None, None, ,  
01/18/2018 22:17, 46, 40, 23 ,4, 6, S, None, None, ,  
01/18/2018 22:07, 45, 41, 23 ,4, 6, SE, None, None, ,  
01/18/2018 22:07, 45, 41, 23 ,4, 6, SE, None, None, ,  
01/18/2018 21:56, 44, 43, 23 ,2, 2, SE, None, None, ,  
01/18/2018 21:52, 44, 42, 23 ,1, 3, SE, None, None, ,  
01/18/2018 21:46, 45, 42, 23 ,1, 5, S, None, None, ,  
01/18/2018 21:37, 45, 42, 23 ,2, 5, E, None, None, ,  
01/18/2018 21:36, 45, 42, 23 ,2, 5, E, None, None, ,  
01/18/2018 21:26, 43, 46, 24 ,2, 5, N, None, None, ,  
01/18/2018 21:22, 43, 46, 24 ,4, 5, N, None, None, ,  
01/18/2018 21:16, 47, 38, 22 ,1, 5, S, None, None, ,  
01/18/2018 21:07, 47, 37, 23 ,3, 7, SE, None, None, ,  
01/18/2018 21:06, 47, 37, 23 ,3, 7, SE, None, None, ,  
01/18/2018 20:56, 48, 37, 23 ,6, 8, S, None, None, ,  
01/18/2018 20:52, 48, 37, 23 ,3, 6, SE, None, None, ,  
01/18/2018 20:46, 48, 37, 23 ,4, 7, S, None, None, ,  
01/18/2018 20:37, 49, 36, 24 ,6, 6, S, None, None, ,  
01/18/2018 20:36, 50, 35, 24 ,6, 6, S, None, None, ,  
01/18/2018 20:26, 52, 33, 24 ,4, 6, SW, None, None, ,  
01/18/2018 20:22, 53, 32, 24 ,5, 9, SW, None, None, ,  
01/18/2018 20:16, 53, 32, 24 ,6, 9, SW, None, None, ,  
01/18/2018 20:07, 54, 31, 25 ,9, 11, W, None, None, ,  
01/18/2018 20:06, 54, 31, 24 ,8, 11, W, None, None, ,  
01/18/2018 19:56, 54, 31, 24 ,8, 12, SW, None, None, ,  
01/18/2018 19:52, 54, 31, 24 ,7, 14, SW, None, None, ,  
01/18/2018 19:46, 55, 30, 24 ,11, 14, SW, None, None, ,  
01/18/2018 19:37, 53, 30, 23 ,9, 13, SW, None, None, ,  
01/18/2018 19:35, 53, 30, 23 ,10, 13, SW, None, None, ,  
01/18/2018 19:25, 52, 31, 23 ,9, 11, SW, None, None, ,  
01/18/2018 19:22, 52, 30, 22 ,7, 11, SW, None, None, ,  
01/18/2018 19:15, 53, 30, 23 ,9, 12, W, None, None, ,  
01/18/2018 19:07, 52, 31, 22 ,9, 13, W, None, None, ,  
01/18/2018 19:05, 52, 31, 23 ,9, 13, W, None, None, ,  
01/18/2018 18:55, 52, 31, 22 ,9, 12, W, None, None, ,  
01/18/2018 18:52, 51, 31, 22 ,9, 12, W, None, None, ,  
01/18/2018 18:45, 53, 30, 23 ,9, 13, W, None, None, ,  
01/18/2018 18:37, 53, 30, 23 ,8, 11, W, None, None, ,  
01/18/2018 18:35, 53, 30, 23 ,8, 11, W, None, None, ,  
01/18/2018 18:25, 53, 30, 23 ,7, 10, W, None, None, ,  
01/18/2018 18:22, 53, 30, 23 ,7, 12, W, None, None, ,  
01/18/2018 18:15, 53, 30, 23 ,9, 12, W, None, None, ,  
01/18/2018 18:07, 53, 29, 23 ,8, 13, W, None, None, ,  
01/18/2018 18:05, 54, 29, 23 ,7, 13, W, None, None, ,  
01/18/2018 17:55, 52, 31, 22 ,7, 12, W, None, None, ,  
01/18/2018 17:52, 52, 30, 22 ,9, 13, W, None, None, ,  
01/18/2018 17:45, 52, 30, 22 ,10, 13, W, None, None, ,  
01/18/2018 17:37, 52, 29, 21 ,9, 12, W, None, None, ,  
01/18/2018 17:35, 52, 29, 21 ,7, 9, W, None, None, ,  
01/18/2018 17:25, 52, 29, 21 ,7, 11, W, None, None, ,  
01/18/2018 17:22, 51, 30, 21 ,7, 11, W, None, None, ,  
01/18/2018 17:14, 51, 30, 21 ,9, 11, W, None, None, ,  
01/18/2018 17:07, 51, 29, 20 ,9, 12, W, None, None, ,  
01/18/2018 17:04, 51, 30, 21 ,9, 12, W, None, None, ,  
01/18/2018 16:54, 52, 30, 21 ,9, 14, W, None, None, ,  
01/18/2018 16:52, 52, 29, 20 ,10, 12, W, None, None, ,  
01/18/2018 16:44, 51, 31, 21 ,9, 13, W, None, None, ,  
01/18/2018 16:37, 52, 29, 21 ,11, 13, W, None, None, ,  
01/18/2018 16:34, 52, 29, 21 ,9, 13, W, None, None, ,  
01/18/2018 16:24, 51, 30, 21 ,9, 13, W, None, None, ,  
01/18/2018 16:22, 50, 31, 21 ,10, 13, W, None, None, ,  
01/18/2018 16:14, 50, 31, 21 ,11, 13, W, None, None, ,  
01/18/2018 16:07, 50, 32, 21 ,10, 17, W, None, None, ,  
01/18/2018 16:04, 49, 33, 21 ,11, 17, W, None, None, ,  
Change End Date:

Copyright © 1998-2015 Vaisala, Inc.
All Rights Reserved
Send comments about the data to:
SCAN Web ® is a registered trademark of Vaisala, Inc.
SCAN Web Version 6.0